M I D A S
Marine Information and Data Acquisition System
Tripno 2252 of the Zeeleeuw from 2012-01-10 07:41:26 to 2012-01-10 16:58:52
Back to CruiseResearch ActivitiesStationsMapUnderway DataData graphs

EquipmentUnitsComment
TimeDGPSUTC
LatitudeDGPSDM.mWGS84
LongitudeDGPSDM.mWGS84
HeadingGyrodeg 
SOGDGPSknotsSpeed over ground
COGDGPSdegCourse over ground
DepthEcho soundermeters200 kHz
Missing or incorrect values are displayed as -999
Navigation data collected by the RV Zeeleeuw from 2012-01-10 07:44:33 to 2012-01-10 17:02:15
                                                                                    Next 1000 lines
Time Latitude Longitude Heading SOG COG Depth
2012-01-10 07:44:42 51°13.635 2°56.012 107 1.8 292 7.4
2012-01-10 07:44:47 51°13.637 2°56.007 107 2.3 292 7.4
2012-01-10 07:44:52 51°13.638 2°56.002 107 2.8 291 4.8
2012-01-10 07:44:58 51°13.64 2°55.994 107 3.1 290 -999
2012-01-10 07:45:03 51°13.642 2°55.987 106.8 3.4 291 -999
2012-01-10 07:45:10 51°13.644 2°55.977 106.7 3.3 287 -999
2012-01-10 07:45:14 51°13.645 2°55.972 106.4 3.4 290 -999
2012-01-10 07:45:20 51°13.647 2°55.963 106 3.5 287 -999
2012-01-10 07:45:25 51°13.649 2°55.955 106 3.8 289 -999
2012-01-10 07:45:30 51°13.65 2°55.947 106.3 3.9 287 -999
2012-01-10 07:45:34 51°13.652 2°55.94 107 3.9 289 -999
2012-01-10 07:45:40 51°13.654 2°55.93 107.5 4 288 -999
2012-01-10 07:45:45 51°13.656 2°55.922 108.5 4 290 -999
2012-01-10 07:45:50 51°13.658 2°55.913 109.7 4 290 -999
2012-01-10 07:45:54 51°13.659 2°55.907 111.7 4.2 291 -999
2012-01-10 07:46:00 51°13.662 2°55.896 112.6 4.3 293 -999
2012-01-10 07:46:05 51°13.665 2°55.887 113.8 4.4 294 -999
2012-01-10 07:46:10 51°13.667 2°55.878 114.9 4.5 295 -999
2012-01-10 07:46:14 51°13.67 2°55.871 116 4.6 296 -999
2012-01-10 07:46:20 51°13.673 2°55.86 117 4.7 298 -999
2012-01-10 07:46:25 51°13.676 2°55.85 118.2 4.8 299 -999
2012-01-10 07:46:30 51°13.68 2°55.841 119.1 4.9 300 -999
2012-01-10 07:46:34 51°13.683 2°55.834 120.2 4.9 301 -999
2012-01-10 07:46:40 51°13.687 2°55.823 121.3 5 303 -999
2012-01-10 07:46:45 51°13.691 2°55.813 122.3 5.1 304 -999
2012-01-10 07:46:50 51°13.695 2°55.804 123.4 5.1 305 -999
2012-01-10 07:46:54 51°13.698 2°55.797 124.2 5.2 305 -999
2012-01-10 07:47:00 51°13.703 2°55.785 125 5.2 305 -999
2012-01-10 07:47:05 51°13.707 2°55.776 125.5 5.2 307 -999
2012-01-10 07:47:10 51°13.712 2°55.767 126.3 5.2 307 -999
2012-01-10 07:47:14 51°13.715 2°55.76 127.4 5.2 308 -999
2012-01-10 07:47:20 51°13.721 2°55.749 128.6 5.2 309 -999
2012-01-10 07:47:25 51°13.725 2°55.74 129.9 5.2 310 -999
2012-01-10 07:47:30 51°13.73 2°55.731 131.2 5.2 311 -999
2012-01-10 07:47:34 51°13.734 2°55.724 132.8 5.2 312 -999
2012-01-10 07:47:40 51°13.74 2°55.714 134.4 5.2 314 -999
2012-01-10 07:47:45 51°13.745 2°55.706 136.5 5.2 316 -999
2012-01-10 07:47:50 51°13.75 2°55.698 138.7 5.2 318 -999
2012-01-10 07:47:55 51°13.756 2°55.691 141 5.2 320 -999
2012-01-10 07:48:00 51°13.762 2°55.684 143.4 5.3 322 -999
2012-01-10 07:48:05 51°13.768 2°55.677 145.5 5.3 324 -999
2012-01-10 07:48:10 51°13.774 2°55.67 147.7 5.3 326 -999
2012-01-10 07:48:15 51°13.78 2°55.664 149.9 5.3 329 -999
2012-01-10 07:48:20 51°13.787 2°55.658 152.2 5.4 331 -999
2012-01-10 07:48:25 51°13.794 2°55.653 154.5 5.4 333 -999
2012-01-10 07:48:30 51°13.8 2°55.648 156.9 5.4 336 -999
2012-01-10 07:48:35 51°13.807 2°55.644 159.3 5.4 338 -999
2012-01-10 07:48:40 51°13.815 2°55.639 161.8 5.4 341 -999
2012-01-10 07:48:45 51°13.822 2°55.635 164.2 5.5 343 -999
2012-01-10 07:48:50 51°13.829 2°55.632 166.4 5.5 345 -999
2012-01-10 07:48:54 51°13.835 2°55.63 168.6 5.5 347 -999
2012-01-10 07:49:00 51°13.844 2°55.627 170.3 5.4 349 -999
2012-01-10 07:49:05 51°13.851 2°55.626 172.8 5.3 351 -999
2012-01-10 07:49:10 51°13.858 2°55.624 174.8 5.2 353 -999
2012-01-10 07:49:14 51°13.864 2°55.623 176.6 5.1 355 -999
2012-01-10 07:49:20 51°13.872 2°55.622 178.6 5.1 356 -999
2012-01-10 07:49:25 51°13.879 2°55.622 180.6 5 358 -999
2012-01-10 07:49:30 51°13.886 2°55.622 182.8 4.9 -999 -999
2012-01-10 07:49:34 51°13.891 2°55.622 185 4.8 2 -999
2012-01-10 07:49:40 51°13.899 2°55.623 187.3 4.6 4 -999
2012-01-10 07:49:45 51°13.905 2°55.624 189.5 4.5 6 -999
2012-01-10 07:49:50 51°13.911 2°55.625 191.7 4.3 8 -999
2012-01-10 07:49:54 51°13.916 2°55.626 193.9 4.1 10 -999
2012-01-10 07:50:00 51°13.922 2°55.629 196.2 4 12 -999
2012-01-10 07:50:05 51°13.927 2°55.631 198.6 3.8 13 -999
2012-01-10 07:50:10 51°13.932 2°55.633 200.9 3.7 16 -999
2012-01-10 07:50:15 51°13.937 2°55.635 203.2 3.6 18 -999
2012-01-10 07:50:20 51°13.941 2°55.638 205.6 3.4 20 -999
2012-01-10 07:50:25 51°13.946 2°55.641 207.6 3.3 22 -999
2012-01-10 07:50:30 51°13.95 2°55.644 209.9 3.2 25 -999
2012-01-10 07:50:34 51°13.953 2°55.646 211.8 3.1 26 8.8
2012-01-10 07:50:40 51°13.957 2°55.65 214 2.9 28 8.9
2012-01-10 07:50:45 51°13.96 2°55.653 215.5 2.8 30 -999
2012-01-10 07:50:50 51°13.963 2°55.656 217.8 2.6 32 -999
2012-01-10 07:50:54 51°13.965 2°55.659 220.1 2.4 35 -999
2012-01-10 07:51:00 51°13.968 2°55.662 222.4 2.1 36 -999
2012-01-10 07:51:05 51°13.97 2°55.664 224.8 1.8 37 8.4
2012-01-10 07:51:10 51°13.971 2°55.666 227.3 1.4 36 8.4
2012-01-10 07:51:14 51°13.972 2°55.667 229.2 0.9 33 -999
2012-01-10 07:51:20 51°13.973 2°55.668 232.2 0.6 18 -999
2012-01-10 07:51:25 51°13.974 2°55.668 236.7 0.3 344 -999
2012-01-10 07:51:30 51°13.974 2°55.667 241.1 0.5 299 8.4
2012-01-10 07:51:34 51°13.974 2°55.665 246 0.6 280 8.4
2012-01-10 07:51:40 51°13.975 2°55.663 251.2 1 277 -999
2012-01-10 07:51:45 51°13.975 2°55.66 257 1.3 277 8.4
2012-01-10 07:51:50 51°13.976 2°55.657 262.8 1.5 278 -999
2012-01-10 07:51:54 51°13.976 2°55.654 269.8 1.8 282 -999
2012-01-10 07:52:00 51°13.977 2°55.649 274 2.1 284 -999
2012-01-10 07:52:05 51°13.978 2°55.644 278.7 2.3 286 -999
2012-01-10 07:52:10 51°13.979 2°55.638 282.4 2.6 289 8.5
2012-01-10 07:52:14 51°13.98 2°55.634 285.7 2.9 291 8.5
2012-01-10 07:52:20 51°13.982 2°55.626 288.8 3.4 294 -999
2012-01-10 07:52:24 51°13.984 2°55.62 291.1 3.8 297 9.4
2012-01-10 07:52:30 51°13.987 2°55.61 294.3 4.2 300 9.4
2012-01-10 07:52:34 51°13.99 2°55.603 297.8 4.6 303 -999
2012-01-10 07:52:40 51°13.995 2°55.593 302.3 5 306 9.1
2012-01-10 07:52:45 51°14 2°55.584 305.7 5.3 310 9.1
2012-01-10 07:52:50 51°14.005 2°55.575 308.4 5.5 311 9.1
2012-01-10 07:52:54 51°14.009 2°55.567 310.8 5.8 314 9.1
2012-01-10 07:52:59 51°14.016 2°55.558 313.3 6.2 318 9.1
2012-01-10 07:53:05 51°14.024 2°55.546 315.7 6.6 319 9.1
2012-01-10 07:53:10 51°14.031 2°55.536 318 6.9 321 9.1
2012-01-10 07:53:14 51°14.037 2°55.529 320 7.2 324 9.1
2012-01-10 07:53:19 51°14.046 2°55.519 322.8 7.5 324 9.1
2012-01-10 07:53:24 51°14.055 2°55.51 324.3 7.8 326 9.1
2012-01-10 07:53:29 51°14.064 2°55.5 325.6 8.1 326 9
2012-01-10 07:53:34 51°14.074 2°55.49 326.2 8.3 327 9.3
2012-01-10 07:53:39 51°14.084 2°55.48 326.7 8.5 327 -999
2012-01-10 07:53:45 51°14.096 2°55.467 327.4 8.7 327 -999
2012-01-10 07:53:50 51°14.106 2°55.457 327.6 8.8 328 -999
2012-01-10 07:53:54 51°14.115 2°55.449 328 9 328 -999
2012-01-10 07:54:00 51°14.128 2°55.436 328.2 9.1 328 -999
2012-01-10 07:54:05 51°14.139 2°55.426 329 9.2 329 -999
2012-01-10 07:54:10 51°14.149 2°55.415 329.1 9.3 328 -999
2012-01-10 07:54:14 51°14.158 2°55.406 329.2 9.3 329 -999
2012-01-10 07:54:20 51°14.171 2°55.393 329.6 9.4 328 -999
2012-01-10 07:54:25 51°14.183 2°55.382 328.9 9.4 327 -999
2012-01-10 07:54:30 51°14.194 2°55.37 328.2 9.5 328 -999
2012-01-10 07:54:34 51°14.203 2°55.361 329.1 9.5 329 -999
2012-01-10 07:54:40 51°14.216 2°55.347 329.5 9.6 327 -999
2012-01-10 07:54:45 51°14.228 2°55.335 328.8 9.6 328 -999
2012-01-10 07:54:50 51°14.239 2°55.324 328.9 9.6 328 -999
2012-01-10 07:54:55 51°14.25 2°55.313 329 9.7 327 -999
2012-01-10 07:55:00 51°14.262 2°55.301 328.9 9.7 329 -999
2012-01-10 07:55:05 51°14.273 2°55.29 329.7 9.7 329 -999
2012-01-10 07:55:10 51°14.285 2°55.279 329.8 9.8 328 -999
2012-01-10 07:55:14 51°14.295 2°55.27 329.6 9.9 328 8.7
2012-01-10 07:55:19 51°14.306 2°55.259 329.2 10 329 9
2012-01-10 07:55:25 51°14.321 2°55.246 329.6 10.1 329 -999
2012-01-10 07:55:30 51°14.333 2°55.234 330.4 10.2 329 -999
2012-01-10 07:55:34 51°14.342 2°55.224 329.8 10.3 328 -999
2012-01-10 07:55:40 51°14.357 2°55.209 329.2 10.4 328 -999
2012-01-10 07:55:45 51°14.369 2°55.197 329 10.5 329 -999
2012-01-10 07:55:50 51°14.382 2°55.186 330.1 10.5 329 -999
2012-01-10 07:55:54 51°14.392 2°55.176 330.4 10.6 329 9.1
2012-01-10 07:56:00 51°14.407 2°55.161 329.7 10.6 327 -999
2012-01-10 07:56:05 51°14.419 2°55.148 328.7 10.7 326 -999
2012-01-10 07:56:10 51°14.432 2°55.134 327.5 10.8 326 -999
2012-01-10 07:56:14 51°14.442 2°55.124 326.8 10.8 326 9.3
2012-01-10 07:56:19 51°14.454 2°55.11 326.7 10.9 327 9.1
2012-01-10 07:56:24 51°14.467 2°55.098 327.4 11 328 9.5
2012-01-10 07:56:30 51°14.483 2°55.082 328.3 11 328 9.7
2012-01-10 07:56:34 51°14.493 2°55.072 328.9 11.1 328 9.4
2012-01-10 07:56:39 51°14.506 2°55.059 329.1 11.2 327 -999
2012-01-10 07:56:44 51°14.519 2°55.045 328.8 11.2 326 9.6
2012-01-10 07:56:50 51°14.535 2°55.028 328.1 11.2 326 9.7
2012-01-10 07:56:54 51°14.545 2°55.017 327.8 11.2 326 9.9
2012-01-10 07:56:59 51°14.557 2°55.002 328.1 11.4 324 10.4
2012-01-10 07:57:04 51°14.571 2°54.988 327.7 11.5 326 10.4
2012-01-10 07:57:09 51°14.584 2°54.973 328.1 11.6 324 10.5
2012-01-10 07:57:14 51°14.597 2°54.958 328 11.6 326 10.5
2012-01-10 07:57:18 51°14.608 2°54.947 328.9 11.7 327 10.6
2012-01-10 07:57:23 51°14.621 2°54.932 330.5 11.7 327 10.4
2012-01-10 07:57:28 51°14.635 2°54.918 330.9 11.8 326 10.5
2012-01-10 07:57:33 51°14.649 2°54.904 330.2 11.8 327 10.4
2012-01-10 07:57:38 51°14.662 2°54.89 330.5 11.9 326 10.3
2012-01-10 07:57:42 51°14.674 2°54.878 330.7 11.9 326 10.2
2012-01-10 07:57:47 51°14.687 2°54.863 330.5 12 325 10.2
2012-01-10 07:57:52 51°14.701 2°54.848 330.1 12 326 10.2
2012-01-10 07:57:58 51°14.717 2°54.83 330.3 12 325 10.1
2012-01-10 07:58:02 51°14.727 2°54.817 329.7 12 324 10.1
2012-01-10 07:58:07 51°14.741 2°54.802 329.9 12 327 10.1
2012-01-10 07:58:12 51°14.755 2°54.787 330.9 12 325 10.1
2012-01-10 07:58:17 51°14.769 2°54.773 330.5 12.1 325 10.1
2012-01-10 07:58:22 51°14.783 2°54.757 329.7 12.1 324 10.2
2012-01-10 07:58:26 51°14.793 2°54.744 329.9 12.1 325 10.4
2012-01-10 07:58:31 51°14.807 2°54.728 329.8 12.1 323 10.3
2012-01-10 07:58:36 51°14.82 2°54.711 327.9 12.2 322 10.3
2012-01-10 07:58:41 51°14.833 2°54.695 327.3 12.2 322 10.3
2012-01-10 07:58:46 51°14.847 2°54.678 327.3 12.2 322 10.4
2012-01-10 07:58:51 51°14.86 2°54.661 327.1 12.2 321 10.3
2012-01-10 07:58:56 51°14.873 2°54.644 326.5 12.2 321 10.3
2012-01-10 07:59:01 51°14.887 2°54.628 326.5 12.2 322 10.3
2012-01-10 07:59:06 51°14.9 2°54.612 327.3 12.1 322 10.6
2012-01-10 07:59:11 51°14.913 2°54.595 327.6 12.2 322 10.5
2012-01-10 07:59:16 51°14.926 2°54.577 326.1 12.2 320 10.4
2012-01-10 07:59:21 51°14.939 2°54.56 325.4 12.1 321 10.3
2012-01-10 07:59:26 51°14.952 2°54.543 325.3 12.1 321 10.4
2012-01-10 07:59:31 51°14.965 2°54.526 325.8 12.1 322 10.1
2012-01-10 07:59:36 51°14.978 2°54.51 326.5 12 323 10.1
2012-01-10 07:59:41 51°14.992 2°54.495 327.4 12 323 10.3
2012-01-10 07:59:46 51°15.005 2°54.479 327.5 12 323 10.3
2012-01-10 07:59:51 51°15.019 2°54.463 327.2 12.1 323 10.3
2012-01-10 07:59:57 51°15.035 2°54.444 327.6 12 323 10.1
2012-01-10 08:00:01 51°15.045 2°54.43 327.2 12 321 10.1
2012-01-10 08:00:06 51°15.058 2°54.414 326 12 321 10.2
2012-01-10 08:00:11 51°15.071 2°54.396 324.8 12 320 10.1
2012-01-10 08:00:16 51°15.084 2°54.38 324.7 12 321 10
2012-01-10 08:00:21 51°15.096 2°54.363 325.3 12 321 10.2
2012-01-10 08:00:26 51°15.109 2°54.346 325.4 12 321 10.2
2012-01-10 08:00:31 51°15.122 2°54.329 325 12 320 10.2
2012-01-10 08:00:36 51°15.135 2°54.312 324.2 12 318 10.3
2012-01-10 08:00:42 51°15.15 2°54.291 323.1 12 318 10.2
2012-01-10 08:00:46 51°15.159 2°54.276 322.8 12 318 10.1
2012-01-10 08:00:51 51°15.172 2°54.259 323.2 12 318 10.2
2012-01-10 08:00:56 51°15.184 2°54.241 323 12 317 10.5
2012-01-10 08:01:01 51°15.197 2°54.223 322.2 12.1 318 10.3
2012-01-10 08:01:06 51°15.209 2°54.206 322.1 12 318 10.2
2012-01-10 08:01:11 51°15.222 2°54.188 322.7 12 319 10.2
2012-01-10 08:01:16 51°15.234 2°54.17 323.6 12 319 10.4
2012-01-10 08:01:21 51°15.247 2°54.153 323.8 12 320 10.3
2012-01-10 08:01:26 51°15.26 2°54.136 324.1 12 319 10.5
2012-01-10 08:01:31 51°15.272 2°54.119 324.2 12 321 10.3
2012-01-10 08:01:36 51°15.285 2°54.102 324.9 12 319 10.4
2012-01-10 08:01:41 51°15.297 2°54.085 324.8 12 321 10.4
2012-01-10 08:01:46 51°15.311 2°54.068 325.5 12 321 10.5
2012-01-10 08:01:51 51°15.323 2°54.051 325.6 12 320 10.4
2012-01-10 08:01:56 51°15.336 2°54.034 326 12 321 10.4
2012-01-10 08:02:01 51°15.349 2°54.017 326 12 320 10.4
2012-01-10 08:02:06 51°15.362 2°54 325.2 12 321 10.4
2012-01-10 08:02:11 51°15.375 2°53.984 326 12 322 10.5
2012-01-10 08:02:17 51°15.391 2°53.965 327.8 11.9 322 10.5
2012-01-10 08:02:21 51°15.401 2°53.951 327.1 12 320 10.6
2012-01-10 08:02:26 51°15.414 2°53.934 326 12 321 10.6
2012-01-10 08:02:31 51°15.426 2°53.917 325.3 12 320 10.5
2012-01-10 08:02:36 51°15.439 2°53.9 325 12 320 10.7
2012-01-10 08:02:41 51°15.452 2°53.883 325.2 12 320 10.6
2012-01-10 08:02:46 51°15.465 2°53.867 325.7 12 321 10.5
2012-01-10 08:02:51 51°15.478 2°53.85 326 12 320 10.6
2012-01-10 08:02:56 51°15.491 2°53.833 326.6 12 321 10.4
2012-01-10 08:03:01 51°15.503 2°53.816 326.1 12 320 10.5
2012-01-10 08:03:06 51°15.516 2°53.799 326 12 321 10.5
2012-01-10 08:03:11 51°15.529 2°53.782 327.1 12 322 10.5
2012-01-10 08:03:16 51°15.542 2°53.766 327.4 12 322 10.6
2012-01-10 08:03:21 51°15.555 2°53.75 327.8 12 322 10.6
2012-01-10 08:03:26 51°15.569 2°53.734 328.3 12 322 10.6
2012-01-10 08:03:31 51°15.582 2°53.717 328.4 12 323 10.6
2012-01-10 08:03:36 51°15.595 2°53.701 328.9 12 324 10.6
2012-01-10 08:03:41 51°15.609 2°53.686 329.9 12 325 10.8
2012-01-10 08:03:46 51°15.622 2°53.67 330.2 12 323 10.7
2012-01-10 08:03:51 51°15.636 2°53.656 330.9 12 327 10.7
2012-01-10 08:03:56 51°15.65 2°53.642 332.7 12 328 10.6
2012-01-10 08:04:01 51°15.665 2°53.629 334.7 12 331 10.8
2012-01-10 08:04:06 51°15.679 2°53.615 335.6 11.9 330 10.9
2012-01-10 08:04:11 51°15.694 2°53.603 336.4 11.9 331 10.9
2012-01-10 08:04:16 51°15.708 2°53.589 336.6 12 331 11
2012-01-10 08:04:21 51°15.722 2°53.577 336.2 11.9 330 10.9
2012-01-10 08:04:26 51°15.737 2°53.563 335.4 11.9 330 10.9
2012-01-10 08:04:31 51°15.751 2°53.552 336.6 11.9 333 11
2012-01-10 08:04:36 51°15.766 2°53.54 338.3 11.9 333 11.1
2012-01-10 08:04:41 51°15.781 2°53.528 338.7 11.9 333 11.1
2012-01-10 08:04:46 51°15.796 2°53.516 338.7 11.9 333 11
2012-01-10 08:04:51 51°15.811 2°53.505 339.1 11.9 335 11.1
2012-01-10 08:04:56 51°15.826 2°53.494 340.1 11.9 336 11.1
2012-01-10 08:05:02 51°15.844 2°53.482 341.1 11.9 337 11.1
2012-01-10 08:05:06 51°15.856 2°53.474 342.5 11.9 339 11
2012-01-10 08:05:11 51°15.871 2°53.465 343.9 11.8 339 11.1
2012-01-10 08:05:16 51°15.887 2°53.455 344.8 11.8 340 11
2012-01-10 08:05:21 51°15.902 2°53.446 345.2 11.8 340 10.9
2012-01-10 08:05:26 51°15.918 2°53.437 345.6 11.8 340 10.8
2012-01-10 08:05:31 51°15.933 2°53.428 345.6 11.7 339 10.6
2012-01-10 08:05:36 51°15.948 2°53.418 344.3 11.8 336 10.8
2012-01-10 08:05:41 51°15.962 2°53.406 342.5 11.8 335 10.7
2012-01-10 08:05:46 51°15.977 2°53.395 341.1 11.8 334 10.6
2012-01-10 08:05:51 51°15.992 2°53.384 340 11.8 333 10.6
2012-01-10 08:05:56 51°16.007 2°53.371 339.3 11.8 333 10.9
2012-01-10 08:06:01 51°16.021 2°53.359 339.2 11.8 332 10.7
2012-01-10 08:06:06 51°16.035 2°53.347 338.8 11.9 332 10.7
2012-01-10 08:06:11 51°16.05 2°53.334 338.4 11.8 332 10.8
2012-01-10 08:06:16 51°16.065 2°53.322 338.2 11.8 332 10.8
2012-01-10 08:06:21 51°16.079 2°53.31 338.6 11.8 333 10.8
2012-01-10 08:06:26 51°16.094 2°53.298 339 11.8 333 10.8
2012-01-10 08:06:31 51°16.108 2°53.286 339 11.9 333 10.7
2012-01-10 08:06:36 51°16.123 2°53.274 339 11.8 332 10.8
2012-01-10 08:06:41 51°16.137 2°53.262 338.9 11.8 332 10.6
2012-01-10 08:06:46 51°16.152 2°53.249 338.3 11.8 331 10.8
2012-01-10 08:06:51 51°16.166 2°53.236 337.4 11.8 329 10.7
2012-01-10 08:06:57 51°16.182 2°53.219 335.4 11.9 327 11
2012-01-10 08:07:01 51°16.193 2°53.207 333.6 11.9 326 10.9
2012-01-10 08:07:06 51°16.207 2°53.193 332.6 11.9 325 11
2012-01-10 08:07:11 51°16.22 2°53.177 331.8 11.9 324 11
2012-01-10 08:07:16 51°16.234 2°53.162 331.5 11.9 324 11
2012-01-10 08:07:21 51°16.247 2°53.146 331 11.9 324 10.9
2012-01-10 08:07:26 51°16.26 2°53.131 330.9 11.9 325 11
2012-01-10 08:07:31 51°16.274 2°53.116 331.3 11.9 325 11.1
2012-01-10 08:07:36 51°16.287 2°53.101 331.8 11.9 324 11
2012-01-10 08:07:41 51°16.301 2°53.086 331.6 11.8 324 11
2012-01-10 08:07:46 51°16.314 2°53.07 331.9 11.8 325 10.9
2012-01-10 08:07:51 51°16.327 2°53.055 332.5 11.8 325 11
2012-01-10 08:07:56 51°16.341 2°53.041 332.8 11.7 327 11.2
2012-01-10 08:08:01 51°16.355 2°53.027 333.5 11.8 328 10.9
2012-01-10 08:08:06 51°16.368 2°53.013 334.1 11.8 328 11.1
2012-01-10 08:08:11 51°16.382 2°53 334.3 11.8 329 11.2
2012-01-10 08:08:16 51°16.396 2°52.986 334.4 11.8 329 11
2012-01-10 08:08:21 51°16.41 2°52.972 334.3 11.8 328 11.3
2012-01-10 08:08:26 51°16.424 2°52.958 333.6 11.9 328 11.2
2012-01-10 08:08:31 51°16.438 2°52.944 333.5 11.8 327 10.8
2012-01-10 08:08:36 51°16.452 2°52.93 333.4 11.8 328 11
2012-01-10 08:08:41 51°16.466 2°52.916 333.5 11.8 328 10.9
2012-01-10 08:08:46 51°16.479 2°52.902 333.7 11.8 328 10.9
2012-01-10 08:08:51 51°16.494 2°52.889 334.4 11.8 329 11
2012-01-10 08:08:56 51°16.508 2°52.875 334.7 11.8 329 10.9
2012-01-10 08:09:01 51°16.522 2°52.862 334.7 11.8 329 10.8
2012-01-10 08:09:06 51°16.536 2°52.849 334.7 11.8 329 10.8
2012-01-10 08:09:11 51°16.55 2°52.836 334.7 11.8 330 10.7
2012-01-10 08:09:17 51°16.567 2°52.82 334.8 11.7 330 10.6
2012-01-10 08:09:21 51°16.578 2°52.81 335.2 11.7 330 10.6
2012-01-10 08:09:26 51°16.592 2°52.797 335.6 11.7 331 10.4
2012-01-10 08:09:31 51°16.606 2°52.785 335.6 11.7 330 10.4
2012-01-10 08:09:36 51°16.62 2°52.772 335.4 11.6 330 10.4
2012-01-10 08:09:42 51°16.637 2°52.756 335.1 11.6 330 10.1
2012-01-10 08:09:46 51°16.648 2°52.746 334.7 11.6 330 10.2
2012-01-10 08:09:51 51°16.662 2°52.733 334.9 11.6 330 9.9
2012-01-10 08:09:56 51°16.676 2°52.721 335.3 11.6 331 9.9
2012-01-10 08:10:01 51°16.69 2°52.708 335.7 11.5 331 9.7
2012-01-10 08:10:06 51°16.704 2°52.696 335.9 11.5 331 9.6
2012-01-10 08:10:11 51°16.718 2°52.683 336.1 11.5 331 9.3
2012-01-10 08:10:16 51°16.732 2°52.671 336.1 11.4 331 9
2012-01-10 08:10:21 51°16.745 2°52.659 336.1 11.4 331 8.8
2012-01-10 08:10:26 51°16.759 2°52.647 336.5 11.4 332 8.9
2012-01-10 08:10:31 51°16.773 2°52.635 336.8 11.3 332 8.8
2012-01-10 08:10:36 51°16.787 2°52.623 337.1 11.3 332 8.9
2012-01-10 08:10:41 51°16.801 2°52.612 337.4 11.3 332 8.8
2012-01-10 08:10:46 51°16.815 2°52.6 337.6 11.3 332 8.7
2012-01-10 08:10:51 51°16.829 2°52.589 337.8 11.3 333 8.6
2012-01-10 08:10:56 51°16.842 2°52.577 338.2 11.3 333 8.7
2012-01-10 08:11:01 51°16.856 2°52.566 338.2 11.3 333 8.7
2012-01-10 08:11:06 51°16.87 2°52.554 338.3 11.3 333 8.9
2012-01-10 08:11:11 51°16.884 2°52.543 338.3 11.3 333 8.7
2012-01-10 08:11:16 51°16.898 2°52.531 338.3 11.2 333 8.6
2012-01-10 08:11:21 51°16.912 2°52.52 338.4 11.2 333 8.7
2012-01-10 08:11:26 51°16.926 2°52.509 338.7 11.2 333 8.6
2012-01-10 08:11:31 51°16.94 2°52.498 338.9 11.3 333 8.7
2012-01-10 08:11:36 51°16.953 2°52.487 338.9 11.2 333 8.5
2012-01-10 08:11:41 51°16.967 2°52.475 338.9 11.2 333 8.5
2012-01-10 08:11:46 51°16.981 2°52.464 338.6 11.2 332 8.5
2012-01-10 08:11:51 51°16.995 2°52.452 338.2 11.2 332 8.5
2012-01-10 08:11:56 51°17.008 2°52.44 337.7 11.2 332 8.6
2012-01-10 08:12:02 51°17.025 2°52.426 337.6 11.2 332 8.6
2012-01-10 08:12:06 51°17.036 2°52.417 337.5 11.3 332 8.7
2012-01-10 08:12:11 51°17.05 2°52.405 337.3 11.3 331 8.8
2012-01-10 08:12:16 51°17.064 2°52.393 337.1 11.3 331 8.9
2012-01-10 08:12:21 51°17.077 2°52.381 336.9 11.4 331 9
2012-01-10 08:12:26 51°17.091 2°52.368 336.7 11.4 330 8.9
2012-01-10 08:12:31 51°17.105 2°52.356 336.2 11.4 330 9
2012-01-10 08:12:36 51°17.118 2°52.343 336.1 11.4 330 9.1
2012-01-10 08:12:41 51°17.132 2°52.331 335.9 11.4 330 9.3
2012-01-10 08:12:46 51°17.145 2°52.318 335.6 11.4 330 9.2
2012-01-10 08:12:51 51°17.159 2°52.305 335.5 11.4 330 9.3
2012-01-10 08:12:56 51°17.172 2°52.292 335.5 11.4 329 9.2
2012-01-10 08:13:01 51°17.186 2°52.279 335.4 11.4 329 9.3
2012-01-10 08:13:06 51°17.199 2°52.266 335 11.4 329 9.6
2012-01-10 08:13:11 51°17.213 2°52.253 334.9 11.4 329 9.8
2012-01-10 08:13:16 51°17.226 2°52.24 335.4 11.4 329 9.9
2012-01-10 08:13:21 51°17.24 2°52.227 335.4 11.4 329 10.1
2012-01-10 08:13:26 51°17.254 2°52.214 335.6 11.5 330 10.3
2012-01-10 08:13:31 51°17.267 2°52.202 335.9 11.4 330 10.3
2012-01-10 08:13:36 51°17.281 2°52.189 335.9 11.4 330 10.3
2012-01-10 08:13:41 51°17.295 2°52.176 336.1 11.4 330 10.2
2012-01-10 08:13:46 51°17.308 2°52.164 336.5 11.4 331 10.2
2012-01-10 08:13:51 51°17.322 2°52.152 337.1 11.3 332 10.2
2012-01-10 08:13:56 51°17.336 2°52.141 338.1 11.3 333 10.2
2012-01-10 08:14:02 51°17.353 2°52.128 339.3 11.3 334 10.2
2012-01-10 08:14:06 51°17.364 2°52.119 340.5 11.3 335 10.3
2012-01-10 08:14:11 51°17.379 2°52.109 341.2 11.3 335 10.2
2012-01-10 08:14:16 51°17.393 2°52.098 341.5 11.2 336 10.2
2012-01-10 08:14:22 51°17.41 2°52.086 342.2 11.2 336 10.2
2012-01-10 08:14:26 51°17.421 2°52.078 342.2 11.2 335 10.2
2012-01-10 08:14:31 51°17.436 2°52.068 342.1 11.3 335 10.2
2012-01-10 08:14:36 51°17.45 2°52.057 342 11.3 335 10.2
2012-01-10 08:14:41 51°17.464 2°52.046 341.6 11.3 335 10.2
2012-01-10 08:14:46 51°17.478 2°52.035 341.5 11.3 335 10
2012-01-10 08:14:51 51°17.492 2°52.025 341.7 11.2 334 9.9
2012-01-10 08:14:56 51°17.506 2°52.014 341.7 11.3 334 9.8
2012-01-10 08:15:01 51°17.52 2°52.004 341.4 11.2 334 9.7
2012-01-10 08:15:06 51°17.534 2°51.993 341.4 11.2 334 9.5
2012-01-10 08:15:11 51°17.548 2°51.982 341.2 11.2 333 9.5
2012-01-10 08:15:16 51°17.562 2°51.971 340.9 11.2 333 9.4
2012-01-10 08:15:21 51°17.576 2°51.959 340.4 11.3 332 9.5
2012-01-10 08:15:26 51°17.589 2°51.947 340.1 11.3 332 9.5
2012-01-10 08:15:31 51°17.603 2°51.935 339.7 11.3 333 9.3
2012-01-10 08:15:36 51°17.617 2°51.924 340.1 11.2 334 9.2
2012-01-10 08:15:41 51°17.631 2°51.913 341.1 11.2 333 9.2
2012-01-10 08:15:46 51°17.645 2°51.902 341 11.2 333 9.2
2012-01-10 08:15:51 51°17.659 2°51.89 340.9 11.3 333 9.4
2012-01-10 08:15:57 51°17.675 2°51.876 340.5 11.3 332 9.2
2012-01-10 08:16:01 51°17.686 2°51.867 339.7 11.3 332 9.3
2012-01-10 08:16:06 51°17.7 2°51.855 339.2 11.3 332 9.3
2012-01-10 08:16:11 51°17.714 2°51.843 339.2 11.3 331 9.1
2012-01-10 08:16:16 51°17.728 2°51.831 339 11.3 330 9
2012-01-10 08:16:21 51°17.741 2°51.818 338.4 11.3 330 9.1
2012-01-10 08:16:26 51°17.755 2°51.805 337.9 11.3 330 9.1
2012-01-10 08:16:31 51°17.769 2°51.793 337.2 11.4 329 9.1
2012-01-10 08:16:36 51°17.782 2°51.78 337.1 11.3 329 9
2012-01-10 08:16:42 51°17.798 2°51.765 337.2 11.4 330 9.1
2012-01-10 08:16:46 51°17.809 2°51.754 337.3 11.4 330 9.3
2012-01-10 08:16:51 51°17.823 2°51.741 337.4 11.4 330 9.1
2012-01-10 08:16:56 51°17.836 2°51.728 337.4 11.3 329 8.9
2012-01-10 08:17:01 51°17.85 2°51.715 337.1 11.4 329 9.1
2012-01-10 08:17:06 51°17.864 2°51.702 336.7 11.4 329 9.1
2012-01-10 08:17:11 51°17.877 2°51.689 336.8 11.3 329 9.3
2012-01-10 08:17:16 51°17.891 2°51.676 336.9 11.4 330 9.6
2012-01-10 08:17:21 51°17.904 2°51.664 337.6 11.4 330 9.4
2012-01-10 08:17:26 51°17.918 2°51.652 338.1 11.4 331 9.2
2012-01-10 08:17:31 51°17.932 2°51.64 339 11.3 332 9.3
2012-01-10 08:17:36 51°17.946 2°51.629 340 11.3 333 9.6
2012-01-10 08:17:41 51°17.96 2°51.618 341 11.4 333 9.6
2012-01-10 08:17:46 51°17.974 2°51.606 341.3 11.4 333 9.6
2012-01-10 08:17:51 51°17.988 2°51.596 341.7 11.3 334 9.5
2012-01-10 08:17:56 51°18.002 2°51.584 342 11.4 333 9.7
2012-01-10 08:18:01 51°18.016 2°51.572 341.3 11.5 332 9.8
2012-01-10 08:18:06 51°18.03 2°51.561 341 11.4 333 10
2012-01-10 08:18:11 51°18.044 2°51.55 341.3 11.4 333 9.9
2012-01-10 08:18:17 51°18.061 2°51.536 341.5 11.4 333 10.1
2012-01-10 08:18:21 51°18.072 2°51.527 341.3 11.4 332 10.1
2012-01-10 08:18:26 51°18.086 2°51.515 340.7 11.5 331 10.3
2012-01-10 08:18:31 51°18.1 2°51.502 339.9 11.5 331 10.4
2012-01-10 08:18:36 51°18.114 2°51.489 339.4 11.6 330 10.6
2012-01-10 08:18:42 51°18.131 2°51.474 338.8 11.5 330 10.5
2012-01-10 08:18:46 51°18.142 2°51.463 338.4 11.6 329 10.6
2012-01-10 08:18:51 51°18.156 2°51.45 338.3 11.6 330 10.7
2012-01-10 08:18:56 51°18.17 2°51.437 338.4 11.6 330 10.8
2012-01-10 08:19:02 51°18.186 2°51.421 338.4 11.6 330 10.8
2012-01-10 08:19:06 51°18.197 2°51.411 338.5 11.6 330 10.9
2012-01-10 08:19:11 51°18.211 2°51.398 338.8 11.7 330 11.1
2012-01-10 08:19:16 51°18.225 2°51.385 338.9 11.7 330 11.2
2012-01-10 08:19:21 51°18.239 2°51.373 339 11.7 330 11.3
2012-01-10 08:19:26 51°18.254 2°51.36 339 11.7 330 11.4
2012-01-10 08:19:31 51°18.267 2°51.347 339.1 11.7 330 11.3
2012-01-10 08:19:36 51°18.281 2°51.333 339 11.7 329 11.5
2012-01-10 08:19:41 51°18.295 2°51.32 338.8 11.7 329 11.6
2012-01-10 08:19:46 51°18.309 2°51.307 338.5 11.7 329 11.5
2012-01-10 08:19:51 51°18.323 2°51.293 338.3 11.7 329 11.8
2012-01-10 08:19:56 51°18.337 2°51.28 338.5 11.7 329 12.1
2012-01-10 08:20:01 51°18.351 2°51.267 339 11.6 330 11.9
2012-01-10 08:20:06 51°18.365 2°51.254 339.4 11.7 330 12.2
2012-01-10 08:20:11 51°18.379 2°51.241 339.8 11.7 331 12.3
2012-01-10 08:20:16 51°18.393 2°51.228 340.4 11.6 331 12.1
2012-01-10 08:20:21 51°18.407 2°51.216 340.7 11.6 332 12.4
2012-01-10 08:20:26 51°18.421 2°51.204 341.6 11.7 332 12.5
2012-01-10 08:20:31 51°18.436 2°51.192 342.3 11.6 333 12.1
2012-01-10 08:20:37 51°18.453 2°51.179 343.3 11.5 334 12.5
2012-01-10 08:20:41 51°18.465 2°51.171 344 11.4 334 12.5
2012-01-10 08:20:46 51°18.479 2°51.16 344.5 11.4 335 12.7
2012-01-10 08:20:51 51°18.493 2°51.149 345.2 11.4 335 13
2012-01-10 08:20:56 51°18.507 2°51.138 345.6 11.5 336 12.9
2012-01-10 08:21:02 51°18.525 2°51.125 345.9 11.5 335 12.9
2012-01-10 08:21:06 51°18.536 2°51.117 345.6 11.4 335 13
2012-01-10 08:21:11 51°18.551 2°51.107 345.7 11.4 335 13.2
2012-01-10 08:21:16 51°18.565 2°51.096 345.4 11.4 335 13.3
2012-01-10 08:21:21 51°18.58 2°51.085 345.2 11.4 334 13.1
2012-01-10 08:21:26 51°18.594 2°51.074 344.9 11.4 334 13.1
2012-01-10 08:21:31 51°18.608 2°51.063 344.9 11.4 334 13.4
2012-01-10 08:21:36 51°18.622 2°51.052 344.8 11.4 335 13.4
2012-01-10 08:21:41 51°18.637 2°51.041 345 11.4 335 13.3
2012-01-10 08:21:46 51°18.651 2°51.03 345.2 11.4 335 13.4
2012-01-10 08:21:51 51°18.665 2°51.02 345.6 11.5 335 13.4
2012-01-10 08:21:56 51°18.68 2°51.009 345.5 11.5 335 13.6
2012-01-10 08:22:01 51°18.694 2°50.998 345.5 11.5 334 13.6
2012-01-10 08:22:06 51°18.708 2°50.987 345 11.5 334 13.5
2012-01-10 08:22:11 51°18.723 2°50.975 344.3 11.5 333 13.7
2012-01-10 08:22:16 51°18.737 2°50.963 343.5 11.6 332 13.7
2012-01-10 08:22:21 51°18.751 2°50.951 342.5 11.6 331 13.7
2012-01-10 08:22:26 51°18.765 2°50.938 342 11.6 332 13.7
2012-01-10 08:22:31 51°18.779 2°50.926 342.4 11.6 333 13.9
2012-01-10 08:22:37 51°18.797 2°50.912 342.7 11.6 333 13.7
2012-01-10 08:22:41 51°18.808 2°50.903 342.9 11.6 333 13.7
2012-01-10 08:22:46 51°18.823 2°50.892 343.5 11.6 334 14
2012-01-10 08:22:51 51°18.837 2°50.881 344 11.6 334 13.8
2012-01-10 08:22:57 51°18.854 2°50.867 344.1 11.6 334 13.9
2012-01-10 08:23:01 51°18.866 2°50.858 344.1 11.6 334 13.8
2012-01-10 08:23:06 51°18.88 2°50.847 344.1 11.6 334 13.8
2012-01-10 08:23:11 51°18.895 2°50.836 344.4 11.7 334 14.1
2012-01-10 08:23:16 51°18.909 2°50.825 344.2 11.6 334 14
2012-01-10 08:23:22 51°18.927 2°50.811 344.1 11.6 334 13.7
2012-01-10 08:23:26 51°18.938 2°50.802 344.1 11.6 334 13.9
2012-01-10 08:23:31 51°18.953 2°50.79 344.1 11.6 334 14
2012-01-10 08:23:36 51°18.967 2°50.779 344.2 11.7 334 13.9
2012-01-10 08:23:42 51°18.985 2°50.766 344 11.7 334 13.9
2012-01-10 08:23:46 51°18.996 2°50.757 343.9 11.7 334 13.9
2012-01-10 08:23:51 51°19.011 2°50.746 344.9 11.6 336 13.9
2012-01-10 08:23:56 51°19.026 2°50.736 346 11.6 336 13.8
2012-01-10 08:24:01 51°19.041 2°50.726 346.6 11.6 338 13.8
2012-01-10 08:24:06 51°19.055 2°50.716 347.3 11.6 337 13.7
2012-01-10 08:24:11 51°19.07 2°50.706 347.3 11.6 338 13.7
2012-01-10 08:24:16 51°19.085 2°50.696 347.5 11.6 337 13.5
2012-01-10 08:24:21 51°19.1 2°50.686 347.2 11.7 336 13.7
2012-01-10 08:24:26 51°19.115 2°50.675 345.9 11.8 335 13.9
2012-01-10 08:24:31 51°19.129 2°50.663 344.5 11.7 334 13.3
2012-01-10 08:24:36 51°19.144 2°50.652 343.8 11.8 333 13.4
2012-01-10 08:24:41 51°19.158 2°50.64 342.7 11.8 332 13.4
2012-01-10 08:24:46 51°19.173 2°50.627 341.9 11.8 332 13.3
2012-01-10 08:24:51 51°19.187 2°50.615 341.7 11.8 331 13.1
2012-01-10 08:24:56 51°19.201 2°50.601 340.5 11.9 331 13.1
2012-01-10 08:25:01 51°19.216 2°50.589 340.5 11.8 331 12.7
2012-01-10 08:25:06 51°19.23 2°50.576 340.6 11.8 331 12.4
2012-01-10 08:25:11 51°19.244 2°50.564 340.6 11.8 332 12.3
2012-01-10 08:25:16 51°19.258 2°50.551 340.6 11.8 331 12.3
2012-01-10 08:25:22 51°19.275 2°50.536 340.1 11.8 331 12.1
2012-01-10 08:25:26 51°19.287 2°50.526 340 11.8 331 12
2012-01-10 08:25:31 51°19.301 2°50.513 339.8 11.8 331 11.8
2012-01-10 08:25:36 51°19.316 2°50.501 340.1 11.7 332 11.7
2012-01-10 08:25:42 51°19.333 2°50.487 340.6 11.7 333 11.7
2012-01-10 08:25:46 51°19.345 2°50.477 341.2 11.8 333 11.7
2012-01-10 08:25:51 51°19.359 2°50.466 341.5 11.7 334 11.5
2012-01-10 08:25:56 51°19.374 2°50.454 341.7 11.7 334 11.5
2012-01-10 08:26:01 51°19.388 2°50.442 341.3 11.7 334 11.5
2012-01-10 08:26:06 51°19.403 2°50.432 341.6 11.7 335 11
2012-01-10 08:26:11 51°19.418 2°50.421 342.7 11.7 336 11.1
2012-01-10 08:26:16 51°19.433 2°50.412 344.3 11.6 338 10.7
2012-01-10 08:26:21 51°19.448 2°50.402 345.6 11.6 339 10.5
2012-01-10 08:26:26 51°19.463 2°50.393 346.4 11.6 339 10.6
2012-01-10 08:26:31 51°19.478 2°50.384 347.2 11.6 339 10.5
2012-01-10 08:26:36 51°19.493 2°50.376 347.5 11.6 340 10.8
2012-01-10 08:26:41 51°19.509 2°50.366 347.7 11.6 340 11.1
2012-01-10 08:26:46 51°19.524 2°50.357 347.7 11.6 340 11.1
2012-01-10 08:26:51 51°19.539 2°50.349 347.7 11.7 340 11.5
2012-01-10 08:26:56 51°19.554 2°50.34 347.6 11.6 340 11.3
2012-01-10 08:27:01 51°19.569 2°50.331 347.5 11.7 340 11.3
2012-01-10 08:27:06 51°19.584 2°50.321 347.3 11.7 339 11.4
2012-01-10 08:27:11 51°19.6 2°50.312 347.1 11.7 339 11.5
2012-01-10 08:27:17 51°19.618 2°50.301 347 11.7 339 11.6
2012-01-10 08:27:21 51°19.63 2°50.294 346.8 11.7 339 11.8
2012-01-10 08:27:26 51°19.645 2°50.285 346.7 11.7 339 11.9
2012-01-10 08:27:31 51°19.661 2°50.275 346.5 11.8 338 12
2012-01-10 08:27:37 51°19.679 2°50.263 345.9 11.8 338 12.1
2012-01-10 08:27:42 51°19.694 2°50.254 345.9 11.8 338 12.5
2012-01-10 08:27:46 51°19.706 2°50.246 345.9 11.9 338 12.6
2012-01-10 08:27:51 51°19.721 2°50.236 345.8 11.9 337 12.5
2012-01-10 08:27:56 51°19.737 2°50.226 345.6 11.9 337 12.7
2012-01-10 08:28:02 51°19.755 2°50.214 345.5 11.9 337 12.9
2012-01-10 08:28:06 51°19.767 2°50.206 345.5 11.9 337 13
2012-01-10 08:28:11 51°19.782 2°50.195 345.3 12 337 13.2
2012-01-10 08:28:16 51°19.797 2°50.185 345 11.9 336 13.2
2012-01-10 08:28:21 51°19.813 2°50.174 344.7 12 336 13.2
2012-01-10 08:28:26 51°19.828 2°50.162 344.4 12.1 335 13.4
2012-01-10 08:28:31 51°19.842 2°50.15 343.2 12 333 13.4
2012-01-10 08:28:36 51°19.857 2°50.137 341.6 12 332 13.9
2012-01-10 08:28:41 51°19.872 2°50.125 341.2 12.1 331 13.9
2012-01-10 08:28:46 51°19.887 2°50.112 340.2 12.1 331 14.3
2012-01-10 08:28:51 51°19.901 2°50.099 339.6 12.2 331 14
2012-01-10 08:28:56 51°19.916 2°50.085 339.5 12.1 331 14.3
2012-01-10 08:29:01 51°19.93 2°50.072 339.5 12.1 331 14.6
2012-01-10 08:29:06 51°19.945 2°50.059 339.7 12.1 331 14.8
2012-01-10 08:29:11 51°19.96 2°50.046 339.8 12.1 331 15
2012-01-10 08:29:16 51°19.974 2°50.033 339.5 12.1 331 14.9
2012-01-10 08:29:21 51°19.989 2°50.02 339.7 12.1 332 15.1
2012-01-10 08:29:26 51°20.004 2°50.008 340.5 12.1 332 15.2
2012-01-10 08:29:31 51°20.019 2°49.996 341.2 12.1 333 15.5
2012-01-10 08:29:37 51°20.037 2°49.98 341.3 12.2 332 15.7
2012-01-10 08:29:42 51°20.052 2°49.968 341.3 12.2 333 15.8
2012-01-10 08:29:46 51°20.064 2°49.958 341.7 12.2 334 16
2012-01-10 08:29:51 51°20.079 2°49.947 342.6 12.2 335 16.2
2012-01-10 08:29:56 51°20.095 2°49.936 343.8 12.1 336 16.4
2012-01-10 08:30:02 51°20.113 2°49.923 345 12.1 337 16.8
2012-01-10 08:30:06 51°20.126 2°49.915 345.6 12.1 337 17
2012-01-10 08:30:11 51°20.141 2°49.905 346.1 12.1 338 17
2012-01-10 08:30:16 51°20.157 2°49.895 346.3 12.1 338 17.2
2012-01-10 08:30:21 51°20.172 2°49.885 346.7 12.1 338 17.6
2012-01-10 08:30:26 51°20.188 2°49.874 346.8 12.1 338 17.6
2012-01-10 08:30:31 51°20.203 2°49.864 346.7 12.1 338 17.9
2012-01-10 08:30:36 51°20.219 2°49.854 346.6 12.1 337 18.2
2012-01-10 08:30:41 51°20.234 2°49.844 346.1 12.1 337 18.5
2012-01-10 08:30:46 51°20.25 2°49.833 345.8 12.1 337 18.6
2012-01-10 08:30:51 51°20.265 2°49.823 345.6 12.1 336 18.9
2012-01-10 08:30:56 51°20.28 2°49.812 345.4 12.1 337 19.1
2012-01-10 08:31:01 51°20.296 2°49.801 345.2 12.1 336 19.2
2012-01-10 08:31:06 51°20.311 2°49.791 345 12.2 337 19.6
2012-01-10 08:31:11 51°20.327 2°49.779 344.9 12.1 336 19.4
2012-01-10 08:31:16 51°20.342 2°49.769 344.9 12.1 336 19.9
2012-01-10 08:31:21 51°20.357 2°49.758 344.8 12.2 336 20.1
2012-01-10 08:31:26 51°20.373 2°49.747 344.5 12.2 336 20.3
2012-01-10 08:31:31 51°20.388 2°49.735 344.1 12.1 335 20.6
2012-01-10 08:31:37 51°20.406 2°49.722 343.6 12.2 335 21.1
2012-01-10 08:31:41 51°20.418 2°49.712 343.4 12.2 334 21.2
2012-01-10 08:31:46 51°20.434 2°49.7 342.9 12.2 334 20.9
2012-01-10 08:31:51 51°20.449 2°49.688 342.4 12.2 334 21.4
2012-01-10 08:31:57 51°20.467 2°49.673 342.1 12.2 333 21.7
2012-01-10 08:32:01 51°20.479 2°49.664 341.7 12.2 333 21.6
2012-01-10 08:32:06 51°20.494 2°49.651 341.2 12.2 332 21.6
2012-01-10 08:32:11 51°20.509 2°49.639 340.7 12.2 332 21.8
2012-01-10 08:32:16 51°20.524 2°49.626 340.6 12.2 332 21.9
2012-01-10 08:32:22 51°20.542 2°49.611 340.5 12.2 332 22.2
2012-01-10 08:32:26 51°20.554 2°49.601 340.4 12.2 333 22.1
2012-01-10 08:32:31 51°20.569 2°49.589 340.8 12.2 333 22
2012-01-10 08:32:36 51°20.584 2°49.577 341.2 12.2 333 22
2012-01-10 08:32:41 51°20.599 2°49.565 341.2 12.2 334 22.3
2012-01-10 08:32:46 51°20.614 2°49.553 341.6 12.2 334 22.1
2012-01-10 08:32:51 51°20.63 2°49.542 341.9 12.2 334 21.7
2012-01-10 08:32:56 51°20.645 2°49.53 342.1 12.1 334 22.2
2012-01-10 08:33:01 51°20.66 2°49.518 342.2 12.1 334 22.3
2012-01-10 08:33:06 51°20.675 2°49.506 342 12.1 333 22.2
2012-01-10 08:33:11 51°20.69 2°49.494 341.5 12 333 22.1
2012-01-10 08:33:16 51°20.704 2°49.481 341.5 12.1 332 22.5
2012-01-10 08:33:21 51°20.719 2°49.468 341.3 12.1 333 22.5
2012-01-10 08:33:26 51°20.734 2°49.456 341.4 12 332 22.3
2012-01-10 08:33:31 51°20.749 2°49.444 341.6 12 333 22.2
2012-01-10 08:33:36 51°20.764 2°49.432 341.9 12 333 22.4
2012-01-10 08:33:41 51°20.778 2°49.419 341.8 12 332 22.4
2012-01-10 08:33:46 51°20.793 2°49.407 340.9 12 331 22.3
2012-01-10 08:33:51 51°20.808 2°49.394 340.1 12 331 22.1
2012-01-10 08:33:56 51°20.822 2°49.382 340.3 11.9 333 22.2
2012-01-10 08:34:01 51°20.837 2°49.37 341.4 11.9 333 22.3
2012-01-10 08:34:06 51°20.852 2°49.358 341.9 11.9 334 22.5
2012-01-10 08:34:11 51°20.867 2°49.347 342.6 11.8 335 22.2
2012-01-10 08:34:16 51°20.882 2°49.336 343.4 11.8 336 22.1
2012-01-10 08:34:22 51°20.9 2°49.324 344.6 11.8 338 22.3
2012-01-10 08:34:26 51°20.912 2°49.316 345.6 11.8 337 22
2012-01-10 08:34:31 51°20.927 2°49.307 346 11.8 339 22.1
2012-01-10 08:34:36 51°20.942 2°49.297 346.6 11.8 339 22.1
2012-01-10 08:34:42 51°20.961 2°49.286 347 11.8 339 21.8
2012-01-10 08:34:46 51°20.973 2°49.278 347 11.8 339 21.7
2012-01-10 08:34:51 51°20.988 2°49.268 346.9 11.9 339 21.7
2012-01-10 08:34:56 51°21.004 2°49.259 347.1 11.9 339 21.7
2012-01-10 08:35:01 51°21.019 2°49.25 347.6 11.8 340 21.6
2012-01-10 08:35:06 51°21.035 2°49.241 348.2 11.9 340 21.6
2012-01-10 08:35:11 51°21.05 2°49.232 348 11.8 340 21.5
2012-01-10 08:35:16 51°21.065 2°49.223 347.8 11.9 340 21.7
2012-01-10 08:35:21 51°21.081 2°49.214 347.7 11.9 340 21.6
2012-01-10 08:35:26 51°21.096 2°49.205 347.4 11.9 340 21.5
2012-01-10 08:35:31 51°21.112 2°49.196 347.3 11.9 340 21.4
2012-01-10 08:35:36 51°21.127 2°49.187 347.4 11.9 339 21.7
2012-01-10 08:35:41 51°21.143 2°49.178 347.3 11.8 339 21.2
2012-01-10 08:35:46 51°21.158 2°49.168 347 11.9 339 21.2
2012-01-10 08:35:51 51°21.173 2°49.159 346.9 11.8 339 21.2
2012-01-10 08:35:56 51°21.188 2°49.149 346.3 12 338 21.9
2012-01-10 08:36:01 51°21.203 2°49.138 344.8 11.9 337 21.2
2012-01-10 08:36:06 51°21.218 2°49.127 343.8 11.9 336 21.2
2012-01-10 08:36:11 51°21.233 2°49.116 342.6 12 335 21.1
2012-01-10 08:36:17 51°21.251 2°49.103 341.9 11.9 334 21
2012-01-10 08:36:21 51°21.263 2°49.093 341.7 12 334 21
2012-01-10 08:36:26 51°21.278 2°49.082 341.6 12 334 21.1
2012-01-10 08:36:31 51°21.293 2°49.071 341.9 12 335 20.9
2012-01-10 08:36:36 51°21.308 2°49.06 342.8 12 336 20.9
2012-01-10 08:36:41 51°21.324 2°49.05 343.6 11.9 337 20.6
2012-01-10 08:36:46 51°21.339 2°49.04 344.6 11.9 338 20.7
2012-01-10 08:36:51 51°21.354 2°49.031 345.8 11.9 339 20.7
2012-01-10 08:36:56 51°21.37 2°49.022 346.8 11.9 341 20.5
2012-01-10 08:37:02 51°21.389 2°49.011 347.5 11.9 340 20.4
2012-01-10 08:37:06 51°21.401 2°49.005 347.9 11.9 341 20.5
2012-01-10 08:37:11 51°21.417 2°48.996 348.3 11.9 341 20.4
2012-01-10 08:37:16 51°21.432 2°48.987 348.2 11.9 341 20.2
2012-01-10 08:37:21 51°21.448 2°48.978 347.8 11.9 340 20.4
2012-01-10 08:37:26 51°21.463 2°48.969 347.5 11.9 340 20.5
2012-01-10 08:37:31 51°21.479 2°48.96 347.2 11.9 340 20.7
2012-01-10 08:37:36 51°21.494 2°48.951 347.3 11.9 339 21
2012-01-10 08:37:41 51°21.51 2°48.942 347.4 11.9 339 21.1
2012-01-10 08:37:46 51°21.525 2°48.932 347.2 11.9 339 21.1
2012-01-10 08:37:51 51°21.54 2°48.923 347 11.9 340 21.6
2012-01-10 08:37:56 51°21.556 2°48.914 347.2 11.9 340 21.7
2012-01-10 08:38:01 51°21.571 2°48.905 347.5 11.8 341 21.7
2012-01-10 08:38:06 51°21.587 2°48.896 347.7 11.8 340 21.8
2012-01-10 08:38:11 51°21.602 2°48.887 347.5 11.8 338 22
2012-01-10 08:38:16 51°21.617 2°48.876 346.4 11.9 337 22.3
2012-01-10 08:38:21 51°21.632 2°48.866 345.2 11.9 336 22.3
2012-01-10 08:38:26 51°21.647 2°48.855 344.1 11.9 336 22.4
2012-01-10 08:38:31 51°21.662 2°48.844 343.4 11.9 335 22.5
2012-01-10 08:38:37 51°21.68 2°48.83 343.2 11.9 335 22.7
2012-01-10 08:38:41 51°21.692 2°48.821 342.8 11.9 335 22.8
2012-01-10 08:38:46 51°21.707 2°48.81 342.8 11.9 335 23
2012-01-10 08:38:51 51°21.722 2°48.799 343.1 11.9 335 22.7
2012-01-10 08:38:56 51°21.737 2°48.788 343.1 11.9 334 22.6
2012-01-10 08:39:02 51°21.755 2°48.774 342.5 11.9 334 22.9
2012-01-10 08:39:06 51°21.766 2°48.764 341.7 11.9 333 23.1
2012-01-10 08:39:11 51°21.781 2°48.753 341.6 11.9 333 22.9
2012-01-10 08:39:16 51°21.796 2°48.74 340.9 11.9 333 22.8
2012-01-10 08:39:22 51°21.813 2°48.727 341.1 11.9 334 22.8
2012-01-10 08:39:26 51°21.825 2°48.718 341.6 11.9 335 22.8
2012-01-10 08:39:31 51°21.84 2°48.707 342.7 11.8 336 22.8
2012-01-10 08:39:36 51°21.855 2°48.697 343.5 11.8 337 22.7
2012-01-10 08:39:41 51°21.871 2°48.687 344.5 11.8 338 22.8
2012-01-10 08:39:46 51°21.886 2°48.678 345.6 11.8 340 22.9
2012-01-10 08:39:51 51°21.901 2°48.669 346.8 11.8 340 22.9
2012-01-10 08:39:56 51°21.917 2°48.661 347.6 11.7 340 22.9
2012-01-10 08:40:01 51°21.932 2°48.652 348.1 11.8 341 23.1
2012-01-10 08:40:06 51°21.948 2°48.644 348.3 11.7 341 22.7
2012-01-10 08:40:11 51°21.963 2°48.635 348.1 11.8 340 23
2012-01-10 08:40:16 51°21.978 2°48.626 347.9 11.8 340 23.2
2012-01-10 08:40:21 51°21.994 2°48.617 347.6 11.9 340 22.9
2012-01-10 08:40:26 51°22.009 2°48.608 347.3 11.9 339 23.2
2012-01-10 08:40:31 51°22.024 2°48.597 346.3 11.9 338 23
2012-01-10 08:40:37 51°22.043 2°48.585 345 12 336 22.8
2012-01-10 08:40:41 51°22.055 2°48.576 343.6 12 335 23.1
2012-01-10 08:40:46 51°22.07 2°48.565 342.7 12 335 23
2012-01-10 08:40:51 51°22.085 2°48.554 342.5 11.9 335 23
2012-01-10 08:40:57 51°22.103 2°48.541 342.4 11.9 336 23.5
2012-01-10 08:41:01 51°22.115 2°48.532 342.8 11.8 336 22.9
2012-01-10 08:41:06 51°22.13 2°48.522 343.4 11.9 337 23.4
2012-01-10 08:41:11 51°22.145 2°48.512 343.5 11.9 336 23.4
2012-01-10 08:41:17 51°22.163 2°48.5 343.5 11.8 338 23.2
2012-01-10 08:41:22 51°22.178 2°48.49 344.4 11.8 338 23.5
2012-01-10 08:41:26 51°22.19 2°48.482 344.9 11.7 338 23
2012-01-10 08:41:31 51°22.205 2°48.473 345.3 11.7 339 22.8
2012-01-10 08:41:36 51°22.221 2°48.464 345.7 11.7 340 22.9
2012-01-10 08:41:41 51°22.236 2°48.455 346.4 11.7 340 22.7
2012-01-10 08:41:46 51°22.251 2°48.447 347.5 11.7 341 22.2
2012-01-10 08:41:51 51°22.266 2°48.438 347.5 11.6 340 21.9
2012-01-10 08:41:56 51°22.281 2°48.429 347.3 11.7 340 21.3
2012-01-10 08:42:01 51°22.297 2°48.42 347.2 11.6 340 21.5
2012-01-10 08:42:06 51°22.312 2°48.411 347.2 11.6 340 20.9
2012-01-10 08:42:11 51°22.327 2°48.403 347.1 11.6 340 20.3
2012-01-10 08:42:16 51°22.342 2°48.394 347 11.6 341 19.1
2012-01-10 08:42:21 51°22.357 2°48.386 347.7 11.5 341 17.8
2012-01-10 08:42:26 51°22.372 2°48.378 347.7 11.5 341 17.5
2012-01-10 08:42:31 51°22.387 2°48.369 347.7 11.4 341 19
2012-01-10 08:42:36 51°22.402 2°48.361 348 11.4 341 18.2
2012-01-10 08:42:41 51°22.417 2°48.353 347.8 11.4 340 18.1
2012-01-10 08:42:46 51°22.432 2°48.345 347.3 11.4 341 17.7
2012-01-10 08:42:51 51°22.447 2°48.335 346.4 11.5 338 17.2
2012-01-10 08:42:56 51°22.461 2°48.326 345.4 11.5 335 16.7
2012-01-10 08:43:01 51°22.476 2°48.315 343.6 11.4 337 16.6
2012-01-10 08:43:06 51°22.49 2°48.304 343 11.5 335 15.2
2012-01-10 08:43:11 51°22.505 2°48.293 342.4 11.5 334 13
2012-01-10 08:43:17 51°22.521 2°48.279 341.9 11.4 333 13.7
2012-01-10 08:43:22 51°22.535 2°48.268 340.4 11.4 333 15.5
2012-01-10 08:43:26 51°22.547 2°48.259 341.3 11.3 335 16.3
2012-01-10 08:43:31 51°22.561 2°48.249 341.9 11.3 335 16.8
2012-01-10 08:43:36 51°22.575 2°48.239 342.3 11.3 337 17
2012-01-10 08:43:42 51°22.592 2°48.226 343.4 11.4 334 17
2012-01-10 08:43:46 51°22.604 2°48.218 342.5 11.4 336 16.9
2012-01-10 08:43:51 51°22.618 2°48.207 342.9 11.4 335 17
2012-01-10 08:43:56 51°22.632 2°48.196 342.8 11.4 335 17
2012-01-10 08:44:01 51°22.647 2°48.186 342.4 11.4 335 16.6
2012-01-10 08:44:06 51°22.661 2°48.173 341.4 11.5 330 15.8
2012-01-10 08:44:11 51°22.675 2°48.163 340.6 11.4 336 15.2
2012-01-10 08:44:16 51°22.689 2°48.15 341.2 11.5 332 15.6
2012-01-10 08:44:21 51°22.703 2°48.14 341.6 11.5 334 17.3
2012-01-10 08:44:26 51°22.717 2°48.128 341 11.5 333 17.8
2012-01-10 08:44:31 51°22.731 2°48.117 342 11.4 335 17.9
2012-01-10 08:44:36 51°22.746 2°48.106 341.9 11.4 336 18.4
2012-01-10 08:44:41 51°22.76 2°48.096 343 11.5 336 18
2012-01-10 08:44:46 51°22.775 2°48.086 343.9 11.4 337 17.6
2012-01-10 08:44:51 51°22.79 2°48.077 345.2 11.4 339 17.6
2012-01-10 08:44:56 51°22.804 2°48.067 345.6 11.5 337 17.1
2012-01-10 08:45:01 51°22.819 2°48.059 346.9 11.5 339 17.1
2012-01-10 08:45:06 51°22.834 2°48.047 345.5 11.6 334 16.4
2012-01-10 08:45:11 51°22.848 2°48.038 345.1 11.5 338 16.3
2012-01-10 08:45:17 51°22.866 2°48.025 344.5 11.5 335 15.9
2012-01-10 08:45:21 51°22.878 2°48.017 344.3 11.4 337 15.6
2012-01-10 08:45:26 51°22.892 2°48.006 344.7 11.5 335 15.6
2012-01-10 08:45:31 51°22.907 2°47.997 344.7 11.4 338 15.8
2012-01-10 08:45:37 51°22.924 2°47.984 345.4 11.5 338 15.6
2012-01-10 08:45:42 51°22.939 2°47.974 346.5 11.6 336 15.8
2012-01-10 08:45:46 51°22.951 2°47.967 345.4 11.6 337 16
2012-01-10 08:45:51 51°22.965 2°47.956 345 11.6 336 15.9
2012-01-10 08:45:56 51°22.98 2°47.946 345.6 11.6 336 16.3
2012-01-10 08:46:02 51°22.998 2°47.934 345.4 11.5 336 16.6
2012-01-10 08:46:06 51°23.009 2°47.925 345.2 11.6 336 17.5
2012-01-10 08:46:11 51°23.024 2°47.914 344.4 11.6 334 17.6
2012-01-10 08:46:16 51°23.038 2°47.903 343.2 11.6 334 18.6
2012-01-10 08:46:21 51°23.053 2°47.891 341.9 11.6 333 19
2012-01-10 08:46:26 51°23.067 2°47.88 341.8 11.6 334 18.8
2012-01-10 08:46:31 51°23.081 2°47.868 341.3 11.7 333 19.1
2012-01-10 08:46:36 51°23.096 2°47.856 341.2 11.7 334 18.3
2012-01-10 08:46:41 51°23.11 2°47.844 341.5 11.7 333 18.5
2012-01-10 08:46:46 51°23.125 2°47.833 341.8 11.6 334 18.8
2012-01-10 08:46:51 51°23.139 2°47.822 342.7 11.6 335 18.8
2012-01-10 08:46:56 51°23.154 2°47.813 343.8 11.6 336 19.4
2012-01-10 08:47:01 51°23.169 2°47.802 344.1 11.5 337 19.5
2012-01-10 08:47:06 51°23.184 2°47.793 344.9 11.5 338 19.5
2012-01-10 08:47:11 51°23.199 2°47.783 345.6 11.4 339 20
2012-01-10 08:47:17 51°23.217 2°47.773 346.7 11.5 340 20.3
2012-01-10 08:47:21 51°23.228 2°47.765 347.3 11.5 339 20.4
2012-01-10 08:47:26 51°23.243 2°47.756 347.2 11.5 340 20.4
2012-01-10 08:47:31 51°23.258 2°47.748 347.7 11.5 340 20.4
2012-01-10 08:47:37 51°23.276 2°47.737 347.6 11.6 340 20.5
2012-01-10 08:47:41 51°23.288 2°47.73 347.3 11.5 338 20.5
2012-01-10 08:47:46 51°23.303 2°47.72 346.6 11.5 338 20.5
2012-01-10 08:47:51 51°23.318 2°47.71 345.9 11.6 338 20.8
2012-01-10 08:47:57 51°23.336 2°47.699 345.3 11.6 338 21.1
2012-01-10 08:48:02 51°23.351 2°47.69 345.4 11.5 338 20.9
2012-01-10 08:48:06 51°23.363 2°47.682 345.7 11.6 339 20.6
2012-01-10 08:48:11 51°23.378 2°47.673 346.2 11.5 340 20.3
2012-01-10 08:48:16 51°23.393 2°47.664 346.8 11.5 340 20.6
2012-01-10 08:48:22 51°23.411 2°47.654 347.1 11.5 339 20.4
2012-01-10 08:48:26 51°23.422 2°47.646 346.7 11.6 339 20.2
2012-01-10 08:48:31 51°23.438 2°47.637 346.8 11.6 340 20.3
2012-01-10 08:48:36 51°23.453 2°47.628 347 11.6 339 20.6
2012-01-10 08:48:41 51°23.468 2°47.619 346.6 11.6 339 20.6
2012-01-10 08:48:46 51°23.483 2°47.61 346.3 11.6 339 20.5
2012-01-10 08:48:51 51°23.497 2°47.6 345.9 11.6 338 20.8
2012-01-10 08:48:56 51°23.512 2°47.591 345.6 11.6 338 20.8
2012-01-10 08:49:01 51°23.527 2°47.58 345.2 11.7 336 21.5
2012-01-10 08:49:06 51°23.542 2°47.571 344.4 11.7 337 21.4
2012-01-10 08:49:11 51°23.557 2°47.56 343.8 11.6 336 21.8
2012-01-10 08:49:17 51°23.575 2°47.547 343.4 11.7 335 22.3
2012-01-10 08:49:21 51°23.586 2°47.538 342.5 11.7 334 22.1
2012-01-10 08:49:26 51°23.601 2°47.526 341.6 11.7 334 22.2
2012-01-10 08:49:31 51°23.615 2°47.514 341.2 11.7 333 22.2
2012-01-10 08:49:36 51°23.63 2°47.503 340.3 11.7 334 22.9
2012-01-10 08:49:41 51°23.644 2°47.491 340.5 11.8 333 22.8
2012-01-10 08:49:46 51°23.659 2°47.479 340.1 11.7 333 23
2012-01-10 08:49:51 51°23.674 2°47.468 340.1 11.7 334 23.1
2012-01-10 08:49:57 51°23.691 2°47.455 341.4 11.7 335 22.8
2012-01-10 08:50:01 51°23.703 2°47.446 342 11.7 335 23.3
2012-01-10 08:50:06 51°23.718 2°47.435 342.3 11.7 336 23.7
2012-01-10 08:50:11 51°23.733 2°47.425 343.3 11.7 336 23.5
2012-01-10 08:50:16 51°23.748 2°47.415 343.8 11.6 338 23.5
2012-01-10 08:50:22 51°23.766 2°47.404 344.4 11.7 337 23.4
2012-01-10 08:50:26 51°23.778 2°47.396 344.8 11.7 337 22.9
2012-01-10 08:50:31 51°23.793 2°47.385 344.2 11.7 336 21.2
2012-01-10 08:50:36 51°23.807 2°47.374 343.4 11.7 335 19.1
2012-01-10 08:50:42 51°23.825 2°47.361 343.4 11.7 334 18.3
2012-01-10 08:50:46 51°23.836 2°47.351 342.2 11.8 333 19.1
2012-01-10 08:50:51 51°23.851 2°47.339 341.2 11.8 333 19.7
2012-01-10 08:50:56 51°23.865 2°47.328 341.4 11.7 334 20.6
2012-01-10 08:51:01 51°23.88 2°47.316 341.3 11.7 334 21.9
2012-01-10 08:51:06 51°23.895 2°47.305 341.9 11.8 334 22.9
2012-01-10 08:51:11 51°23.909 2°47.293 341.4 11.8 334 23.9
2012-01-10 08:51:16 51°23.924 2°47.283 341.7 11.7 336 24.3
2012-01-10 08:51:21 51°23.939 2°47.273 342.9 11.7 337 24.9
2012-01-10 08:51:26 51°23.954 2°47.263 344.2 11.6 338 25.2
2012-01-10 08:51:31 51°23.969 2°47.253 345 11.7 338 25.3
2012-01-10 08:51:36 51°23.984 2°47.244 346.3 11.7 340 25.3
2012-01-10 08:51:41 51°23.999 2°47.235 346.8 11.6 340 25.8
2012-01-10 08:51:46 51°24.014 2°47.227 347.5 11.6 341 25.9
2012-01-10 08:51:51 51°24.029 2°47.218 347.5 11.7 339 25.8
2012-01-10 08:51:57 51°24.048 2°47.207 347.3 11.6 340 26.2
2012-01-10 08:52:01 51°24.06 2°47.2 347 11.7 340 26.5
2012-01-10 08:52:06 51°24.075 2°47.191 347.1 11.7 340 26.4
2012-01-10 08:52:11 51°24.09 2°47.181 347 11.6 338 26.3
2012-01-10 08:52:17 51°24.108 2°47.171 346.6 11.6 339 26.5
2012-01-10 08:52:21 51°24.12 2°47.163 346.6 11.6 338 26.8
2012-01-10 08:52:26 51°24.135 2°47.153 346.2 11.6 337 26.6
2012-01-10 08:52:31 51°24.15 2°47.142 344.6 11.7 335 26.5
2012-01-10 08:52:36 51°24.164 2°47.131 342.7 11.7 334 26.1
2012-01-10 08:52:42 51°24.182 2°47.118 342.4 11.6 335 25.8
2012-01-10 08:52:46 51°24.193 2°47.108 342.1 11.7 333 26.8
2012-01-10 08:52:51 51°24.208 2°47.097 341.7 11.7 334 27.4
2012-01-10 08:52:56 51°24.222 2°47.085 341.4 11.8 332 27.2
2012-01-10 08:53:02 51°24.24 2°47.071 341.1 11.7 334 26.3
2012-01-10 08:53:06 51°24.252 2°47.061 341.6 11.7 333 27.2
2012-01-10 08:53:11 51°24.266 2°47.05 341.6 11.7 334 27.7
2012-01-10 08:53:16 51°24.281 2°47.039 342.5 11.7 335 28
2012-01-10 08:53:21 51°24.295 2°47.029 343.6 11.6 336 28.4
2012-01-10 08:53:26 51°24.31 2°47.018 343.9 11.6 336 28.7
2012-01-10 08:53:31 51°24.325 2°47.007 344.1 11.6 335 29.2
2012-01-10 08:53:36 51°24.339 2°46.997 343.8 11.7 335 29.5
2012-01-10 08:53:41 51°24.354 2°46.986 343.8 11.6 336 29.9
2012-01-10 08:53:46 51°24.369 2°46.976 344.8 11.6 337 29.7
2012-01-10 08:53:51 51°24.384 2°46.966 345.6 11.7 337 28.7
2012-01-10 08:53:57 51°24.402 2°46.955 346.2 11.6 339 28.6
2012-01-10 08:54:01 51°24.414 2°46.947 347 11.5 339 29.5
2012-01-10 08:54:06 51°24.429 2°46.938 347.4 11.5 339 30.1
2012-01-10 08:54:11 51°24.444 2°46.929 347.8 11.6 340 30.7
2012-01-10 08:54:16 51°24.459 2°46.92 347.7 11.6 339 30.9
2012-01-10 08:54:21 51°24.474 2°46.911 347.7 11.7 339 30.9
2012-01-10 08:54:26 51°24.489 2°46.902 347.7 11.6 339 30.4
2012-01-10 08:54:31 51°24.504 2°46.892 347.3 11.6 338 29.2
2012-01-10 08:54:37 51°24.522 2°46.881 347 11.6 339 28.8
2012-01-10 08:54:42 51°24.537 2°46.872 347.2 11.6 339 29.5
2012-01-10 08:54:46 51°24.549 2°46.864 347 11.7 338 29.5
2012-01-10 08:54:51 51°24.564 2°46.855 347.1 11.6 339 29.5
2012-01-10 08:54:56 51°24.58 2°46.846 347.2 11.6 339 29.7
2012-01-10 08:55:02 51°24.597 2°46.834 347.3 11.7 338 29
2012-01-10 08:55:06 51°24.609 2°46.826 346.9 11.7 337 29.2
2012-01-10 08:55:11 51°24.624 2°46.817 346.1 11.6 338 29.6
2012-01-10 08:55:16 51°24.639 2°46.807 346 11.6 338 29.8
2012-01-10 08:55:22 51°24.657 2°46.795 346.1 11.6 338 30.1
2012-01-10 08:55:26 51°24.669 2°46.788 346.2 11.6 338 29.9
2012-01-10 08:55:31 51°24.684 2°46.778 346.4 11.6 338 29.4
2012-01-10 08:55:36 51°24.699 2°46.769 346.5 11.6 338 28.9
2012-01-10 08:55:41 51°24.714 2°46.759 346.3 11.7 338 28.7
2012-01-10 08:55:46 51°24.729 2°46.75 346.1 11.6 338 27.8
2012-01-10 08:55:51 51°24.744 2°46.74 345.9 11.6 337 27.4
2012-01-10 08:55:56 51°24.759 2°46.729 345.4 11.6 337 27.4
2012-01-10 08:56:01 51°24.774 2°46.719 344.9 11.6 337 27
2012-01-10 08:56:06 51°24.788 2°46.709 344.4 11.7 335 26.4
2012-01-10 08:56:11 51°24.804 2°46.698 343.3 11.6 334 26.2
2012-01-10 08:56:17 51°24.821 2°46.684 341.4 11.7 333 26.3
2012-01-10 08:56:21 51°24.832 2°46.675 341 11.7 334 26.3
2012-01-10 08:56:26 51°24.847 2°46.663 340.6 11.7 333 25.2
2012-01-10 08:56:31 51°24.861 2°46.651 340.3 11.6 334 24.4
2012-01-10 08:56:37 51°24.878 2°46.637 340.6 11.7 333 24.6
2012-01-10 08:56:41 51°24.89 2°46.628 340.4 11.7 333 24.9
2012-01-10 08:56:46 51°24.904 2°46.617 340.6 11.6 335 25
2012-01-10 08:56:51 51°24.919 2°46.605 341.6 11.6 335 24.7
2012-01-10 08:56:57 51°24.936 2°46.593 342.4 11.6 336 24.6
2012-01-10 08:57:02 51°24.951 2°46.583 343.1 11.6 336 24.2
2012-01-10 08:57:06 51°24.963 2°46.575 343.6 11.5 337 24.2
2012-01-10 08:57:11 51°24.978 2°46.565 344.3 11.6 337 24.3
2012-01-10 08:57:16 51°24.993 2°46.555 344.6 11.6 338 24.3
2012-01-10 08:57:22 51°25.011 2°46.544 344.9 11.6 338 24.5
2012-01-10 08:57:26 51°25.023 2°46.536 345.4 11.5 339 24.5
2012-01-10 08:57:31 51°25.038 2°46.527 346.1 11.5 339 24.3
2012-01-10 08:57:36 51°25.053 2°46.518 346.2 11.6 340 24.7
2012-01-10 08:57:41 51°25.068 2°46.509 346.3 11.5 339 24.6
2012-01-10 08:57:46 51°25.083 2°46.5 346.6 11.5 339 24.6
2012-01-10 08:57:51 51°25.097 2°46.489 344.8 11.6 336 24.5
2012-01-10 08:57:56 51°25.112 2°46.479 343.5 11.6 336 24.5
2012-01-10 08:58:01 51°25.126 2°46.468 342.8 11.6 336 24.6
2012-01-10 08:58:06 51°25.141 2°46.458 342.4 11.5 335 24.7
2012-01-10 08:58:11 51°25.156 2°46.447 342.2 11.6 335 24.9
2012-01-10 08:58:17 51°25.173 2°46.433 341.6 11.6 334 24.5
2012-01-10 08:58:21 51°25.185 2°46.424 341.2 11.6 333 24
2012-01-10 08:58:26 51°25.199 2°46.412 340.5 11.7 332 23.5
2012-01-10 08:58:31 51°25.214 2°46.4 339.9 11.6 332 24.2
2012-01-10 08:58:36 51°25.228 2°46.388 339.4 11.7 331 25.1
2012-01-10 08:58:41 51°25.242 2°46.376 338.5 11.7 331 25.2
2012-01-10 08:58:46 51°25.256 2°46.363 338.3 11.7 331 24.6
2012-01-10 08:58:51 51°25.271 2°46.351 338.1 11.7 331 24.5
2012-01-10 08:58:57 51°25.288 2°46.336 338.1 11.8 332 25.3
2012-01-10 08:59:02 51°25.302 2°46.323 338.3 11.7 331 24.9
2012-01-10 08:59:06 51°25.314 2°46.313 338.2 11.7 331 24.7
2012-01-10 08:59:11 51°25.328 2°46.301 338.4 11.7 332 23.3
2012-01-10 08:59:17 51°25.345 2°46.286 338.9 11.7 332 23.7
2012-01-10 08:59:22 51°25.359 2°46.274 339.1 11.6 333 24.6
2012-01-10 08:59:26 51°25.371 2°46.265 339.6 11.6 333 24
2012-01-10 08:59:31 51°25.385 2°46.253 339.9 11.7 333 23.8
2012-01-10 08:59:36 51°25.4 2°46.242 340.2 11.6 334 24.5
2012-01-10 08:59:42 51°25.417 2°46.228 340.5 11.6 334 25
2012-01-10 08:59:46 51°25.429 2°46.219 340.5 11.7 334 25
2012-01-10 08:59:51 51°25.443 2°46.207 340.8 11.7 334 25
2012-01-10 08:59:56 51°25.458 2°46.196 340.7 11.6 335 24.2
2012-01-10 09:00:01 51°25.472 2°46.184 341.2 11.7 333 22.8
2012-01-10 09:00:06 51°25.486 2°46.173 340.6 11.6 334 23
2012-01-10 09:00:11 51°25.501 2°46.161 340.6 11.6 332 24.2
2012-01-10 09:00:17 51°25.518 2°46.148 340.6 11.6 334 24.7
2012-01-10 09:00:21 51°25.53 2°46.138 340.4 11.6 333 24.6
2012-01-10 09:00:26 51°25.544 2°46.127 340.7 11.6 334 24
2012-01-10 09:00:31 51°25.559 2°46.116 340.5 11.6 333 23.8
2012-01-10 09:00:36 51°25.573 2°46.104 340.7 11.6 334 23.2
2012-01-10 09:00:41 51°25.587 2°46.092 340.6 11.6 332 22.9
2012-01-10 09:00:46 51°25.601 2°46.08 339.4 11.6 331 23.4
2012-01-10 09:00:51 51°25.615 2°46.067 337.8 11.6 331 23.6
2012-01-10 09:00:57 51°25.632 2°46.052 337.6 11.6 331 23.8
2012-01-10 09:01:01 51°25.643 2°46.041 337.4 11.6 330 22.8
2012-01-10 09:01:06 51°25.657 2°46.029 337.2 11.6 330 23.2
2012-01-10 09:01:11 51°25.672 2°46.017 337.7 11.7 332 23.9
2012-01-10 09:01:17 51°25.689 2°46.002 338.8 11.6 332 24.1
2012-01-10 09:01:21 51°25.701 2°45.993 339.4 11.7 333 24.1
2012-01-10 09:01:26 51°25.715 2°45.981 339.8 11.6 332 24.4
2012-01-10 09:01:31 51°25.729 2°45.969 339.4 11.6 332 24.5
2012-01-10 09:01:37 51°25.746 2°45.954 339 11.7 331 24.3
2012-01-10 09:01:42 51°25.76 2°45.942 338.8 11.7 332 24.3
2012-01-10 09:01:46 51°25.772 2°45.932 339 11.7 333 24.7
2012-01-10 09:01:51 51°25.786 2°45.92 339.5 11.6 332 24.6
2012-01-10 09:01:56 51°25.8 2°45.908 339.5 11.6 333 24.1
2012-01-10 09:02:02 51°25.817 2°45.894 340.1 11.6 334 24.7
2012-01-10 09:02:06 51°25.829 2°45.886 341 11.6 334 25.4
2012-01-10 09:02:11 51°25.843 2°45.875 341.7 11.6 336 25.3
2012-01-10 09:02:16 51°25.858 2°45.865 342.8 11.5 337 25.8
2012-01-10 09:02:21 51°25.873 2°45.855 343.7 11.5 337 25.4
2012-01-10 09:02:26 51°25.888 2°45.846 344.5 11.5 338 25.6
2012-01-10 09:02:31 51°25.903 2°45.837 345 11.5 338 25.6
2012-01-10 09:02:36 51°25.918 2°45.828 345.9 11.5 340 25.5
2012-01-10 09:02:41 51°25.933 2°45.819 346.2 11.5 338 24.7
2012-01-10 09:02:46 51°25.948 2°45.81 345.4 11.5 339 23.3
2012-01-10 09:02:51 51°25.963 2°45.8 344.9 11.5 337 23.3
2012-01-10 09:02:57 51°25.98 2°45.788 345 11.5 338 24.7
2012-01-10 09:03:01 51°25.991 2°45.779 344.7 11.6 336 25.2
2012-01-10 09:03:06 51°26.006 2°45.769 343.6 11.5 336 25.9
2012-01-10 09:03:11 51°26.021 2°45.759 343.2 11.5 336 26
2012-01-10 09:03:16 51°26.036 2°45.748 343.1 11.6 336 26.1
2012-01-10 09:03:21 51°26.05 2°45.738 343.1 11.6 337 26.9
2012-01-10 09:03:26 51°26.065 2°45.727 343.5 11.5 337 26.2
2012-01-10 09:03:31 51°26.08 2°45.718 344.1 11.5 337 26.2
2012-01-10 09:03:37 51°26.097 2°45.706 344.8 11.5 338 25.2
2012-01-10 09:03:42 51°26.112 2°45.696 344.8 11.5 337 25.2
2012-01-10 09:03:46 51°26.124 2°45.688 344.8 11.5 337 25.2
2012-01-10 09:03:51 51°26.139 2°45.679 344.7 11.5 337 26.1
2012-01-10 09:03:57 51°26.156 2°45.666 344.8 11.6 337 26.4
2012-01-10 09:04:02 51°26.171 2°45.656 344.7 11.6 336 26.2
2012-01-10 09:04:06 51°26.183 2°45.648 344.4 11.6 336 25.7
2012-01-10 09:04:11 51°26.198 2°45.637 344.1 11.6 335 24.6
2012-01-10 09:04:16 51°26.212 2°45.625 342.4 11.6 333 24.6
2012-01-10 09:04:22 51°26.229 2°45.61 341 11.6 332 26
2012-01-10 09:04:26 51°26.24 2°45.6 340.2 11.7 332 26.2
2012-01-10 09:04:31 51°26.254 2°45.588 340 11.7 332 26.5
2012-01-10 09:04:36 51°26.268 2°45.575 339.5 11.7 330 27.1
2012-01-10 09:04:41 51°26.282 2°45.562 338.5 11.7 330 27.3
2012-01-10 09:04:46 51°26.296 2°45.549 338.4 11.7 330 26.4
2012-01-10 09:04:51 51°26.311 2°45.536 338.7 11.7 331 25.8
2012-01-10 09:04:56 51°26.325 2°45.524 339.6 11.7 332 27
2012-01-10 09:05:01 51°26.339 2°45.512 340.3 11.7 332 27.3
2012-01-10 09:05:06 51°26.354 2°45.5 341.2 11.7 333 27.7
2012-01-10 09:05:11 51°26.369 2°45.489 341.8 11.7 334 27.2
2012-01-10 09:05:16 51°26.383 2°45.478 342.7 11.7 335 27.4
2012-01-10 09:05:21 51°26.398 2°45.467 343.4 11.7 336 27.1
2012-01-10 09:05:26 51°26.413 2°45.456 344.1 11.7 336 27.3
2012-01-10 09:05:31 51°26.427 2°45.446 344.5 11.6 336 27.9
2012-01-10 09:05:37 51°26.445 2°45.434 344.8 11.6 336 28.1
2012-01-10 09:05:41 51°26.457 2°45.425 344.8 11.7 336 28.4
2012-01-10 09:05:46 51°26.472 2°45.415 344.8 11.7 336 28.3
2012-01-10 09:05:51 51°26.487 2°45.404 344.6 11.7 336 28
2012-01-10 09:05:57 51°26.505 2°45.391 344.2 11.7 335 28.1
2012-01-10 09:06:01 51°26.517 2°45.383 344.2 11.6 336 28
2012-01-10 09:06:06 51°26.531 2°45.372 344.1 11.6 335 27.8
2012-01-10 09:06:11 51°26.546 2°45.361 343.8 11.6 335 28.1
2012-01-10 09:06:16 51°26.561 2°45.35 343.4 11.7 334 28.1
2012-01-10 09:06:22 51°26.578 2°45.337 343.3 11.7 335 27.9
2012-01-10 09:06:26 51°26.59 2°45.327 343.5 11.6 333 28
2012-01-10 09:06:31 51°26.604 2°45.316 342.4 11.7 334 27.7
2012-01-10 09:06:36 51°26.618 2°45.303 341.2 11.8 330 28.4
2012-01-10 09:06:41 51°26.632 2°45.29 339.8 11.7 332 27.9
2012-01-10 09:06:46 51°26.646 2°45.278 339.8 11.8 330 27.8
2012-01-10 09:06:51 51°26.66 2°45.264 339.1 11.8 331 27.6
2012-01-10 09:06:56 51°26.675 2°45.251 338.6 11.8 329 27.8
2012-01-10 09:07:01 51°26.689 2°45.238 338.4 11.8 330 27.6
2012-01-10 09:07:06 51°26.703 2°45.225 338.5 11.8 330 27.5
2012-01-10 09:07:11 51°26.717 2°45.212 338.4 11.8 330 27.4
2012-01-10 09:07:16 51°26.731 2°45.199 338.7 11.8 330 27.7
2012-01-10 09:07:21 51°26.745 2°45.186 338.7 11.8 331 27.7
2012-01-10 09:07:26 51°26.76 2°45.173 339.1 11.8 331 27.8
2012-01-10 09:07:31 51°26.774 2°45.162 340.1 11.7 333 28
2012-01-10 09:07:36 51°26.789 2°45.15 341.6 11.7 333 27.4
2012-01-10 09:07:41 51°26.803 2°45.139 342.3 11.6 336 27.5
2012-01-10 09:07:46 51°26.818 2°45.128 343.5 11.6 335 27.7
2012-01-10 09:07:51 51°26.832 2°45.117 344.1 11.6 336 28.2